Terminal Aerodrome Forecast
Issued by NWS Charleston, WV

Current Version | Previous Version | Graphics & Text | Print | Product List | Glossary On
Versions: 1 2 3 4 5 6 7 8 9 10 11 12 13 14 15 16 17 18 19 20 21 22 23 24
000
FTUS41 KRLX 210916 AAB
TAFHTS
TAF AMD
KHTS 210916Z 2109/2206 VRB03KT P6SM SCT060
     FM211100 16004KT 6SM SHRA BR BKN040
     FM211500 18007KT 3SM SHRA BR OVC025
     FM211800 19007KT 3SM SHRA VCTS OVC025CB
     FM212300 19004KT 5SM -SHRA OVC035=

USA.gov is the U.S. government's official web portal to all federal, state and local government web resources and services.